sensor_id;sensor_type;location;lat;lon;timestamp;pressure;altitude;pressure_sealevel;temperature;humidity
19843;BME280;10082;51.038;6.992;2023-07-13T00:01:53;112171.53;;;-144.33;76.42
19843;BME280;10082;51.038;6.992;2023-07-13T00:04:22;112171.53;;;-144.33;76.55
19843;BME280;10082;51.038;6.992;2023-07-13T00:06:52;112171.53;;;-144.33;76.93
19843;BME280;10082;51.038;6.992;2023-07-13T00:09:20;112171.53;;;-144.33;77.53
19843;BME280;10082;51.038;6.992;2023-07-13T00:11:51;112171.53;;;-144.33;77.78
19843;BME280;10082;51.038;6.992;2023-07-13T00:14:19;112171.53;;;-144.33;78.06
19843;BME280;10082;51.038;6.992;2023-07-13T00:16:48;112171.53;;;-144.33;79.04
19843;BME280;10082;51.038;6.992;2023-07-13T00:19:16;112171.53;;;-144.33;79.79
19843;BME280;10082;51.038;6.992;2023-07-13T00:21:43;112171.53;;;-144.33;80.22
19843;BME280;10082;51.038;6.992;2023-07-13T00:24:15;112171.53;;;-144.33;80.06
19843;BME280;10082;51.038;6.992;2023-07-13T00:26:47;112171.53;;;-144.33;80.75
19843;BME280;10082;51.038;6.992;2023-07-13T00:29:14;112171.53;;;-144.33;80.77
19843;BME280;10082;51.038;6.992;2023-07-13T00:31:42;112171.53;;;-144.33;80.16
19843;BME280;10082;51.038;6.992;2023-07-13T00:34:11;112171.53;;;-144.33;79.41
19843;BME280;10082;51.038;6.992;2023-07-13T00:36:38;112171.53;;;-144.33;79.88
19843;BME280;10082;51.038;6.992;2023-07-13T00:39:06;112171.53;;;-144.33;80.11
19843;BME280;10082;51.038;6.992;2023-07-13T00:41:35;112171.53;;;-144.33;79.86
19843;BME280;10082;51.038;6.992;2023-07-13T00:44:03;112171.53;;;-144.33;79.87
19843;BME280;10082;51.038;6.992;2023-07-13T00:46:32;112171.53;;;-144.33;79.79
19843;BME280;10082;51.038;6.992;2023-07-13T00:49:04;112171.53;;;-144.33;80.36
19843;BME280;10082;51.038;6.992;2023-07-13T00:51:36;112171.53;;;-144.33;80.68
19843;BME280;10082;51.038;6.992;2023-07-13T00:54:09;112171.53;;;-144.33;81.67
19843;BME280;10082;51.038;6.992;2023-07-13T00:56:39;112171.53;;;-144.33;81.43
19843;BME280;10082;51.038;6.992;2023-07-13T00:59:11;112171.53;;;-144.33;81.27
19843;BME280;10082;51.038;6.992;2023-07-13T01:01:39;112171.53;;;-144.33;81.26
19843;BME280;10082;51.038;6.992;2023-07-13T01:04:07;112171.53;;;-144.33;81.84
19843;BME280;10082;51.038;6.992;2023-07-13T01:06:34;112171.53;;;-144.33;81.71
19843;BME280;10082;51.038;6.992;2023-07-13T01:09:03;112171.53;;;-144.33;82.12
19843;BME280;10082;51.038;6.992;2023-07-13T01:11:31;112171.53;;;-144.33;82.28
19843;BME280;10082;51.038;6.992;2023-07-13T01:14:00;112171.53;;;-144.33;82.62
19843;BME280;10082;51.038;6.992;2023-07-13T01:16:30;112171.53;;;-144.33;83.11
19843;BME280;10082;51.038;6.992;2023-07-13T01:18:58;112171.53;;;-144.33;83.34
19843;BME280;10082;51.038;6.992;2023-07-13T01:21:32;112171.53;;;-144.33;83.69
19843;BME280;10082;51.038;6.992;2023-07-13T01:24:00;112171.53;;;-144.33;84.56
19843;BME280;10082;51.038;6.992;2023-07-13T01:26:27;112171.53;;;-144.33;84.97
19843;BME280;10082;51.038;6.992;2023-07-13T01:28:55;112171.53;;;-144.33;85.34
19843;BME280;10082;51.038;6.992;2023-07-13T01:31:23;112171.53;;;-144.33;85.93
19843;BME280;10082;51.038;6.992;2023-07-13T01:33:50;112171.53;;;-144.33;86.50
19843;BME280;10082;51.038;6.992;2023-07-13T01:36:20;112171.53;;;-144.33;87.80
19843;BME280;10082;51.038;6.992;2023-07-13T01:38:48;112171.53;;;-144.33;87.53
19843;BME280;10082;51.038;6.992;2023-07-13T01:41:15;112171.53;;;-144.33;87.85
19843;BME280;10082;51.038;6.992;2023-07-13T01:43:44;112171.53;;;-144.33;87.07
19843;BME280;10082;51.038;6.992;2023-07-13T01:46:11;112171.53;;;-144.33;87.35
19843;BME280;10082;51.038;6.992;2023-07-13T01:48:39;112171.53;;;-144.33;88.03
19843;BME280;10082;51.038;6.992;2023-07-13T01:51:06;112171.53;;;-144.33;88.14
19843;BME280;10082;51.038;6.992;2023-07-13T01:53:33;112171.53;;;-144.33;88.45
19843;BME280;10082;51.038;6.992;2023-07-13T01:56:03;112171.53;;;-144.33;88.33
19843;BME280;10082;51.038;6.992;2023-07-13T01:58:30;112171.53;;;-144.33;87.94
19843;BME280;10082;51.038;6.992;2023-07-13T02:00:57;112171.53;;;-144.33;88.41
19843;BME280;10082;51.038;6.992;2023-07-13T02:03:27;112171.53;;;-144.33;88.63
19843;BME280;10082;51.038;6.992;2023-07-13T02:05:58;112171.53;;;-144.33;89.06
19843;BME280;10082;51.038;6.992;2023-07-13T02:08:26;112171.53;;;-144.33;89.92
19843;BME280;10082;51.038;6.992;2023-07-13T02:10:53;112171.53;;;-144.33;91.02
19843;BME280;10082;51.038;6.992;2023-07-13T02:13:21;112171.53;;;-144.33;91.61
19843;BME280;10082;51.038;6.992;2023-07-13T02:15:50;112171.53;;;-144.33;92.70
19843;BME280;10082;51.038;6.992;2023-07-13T02:18:17;112171.53;;;-144.33;92.91
19843;BME280;10082;51.038;6.992;2023-07-13T02:20:44;112171.53;;;-144.33;93.06
19843;BME280;10082;51.038;6.992;2023-07-13T02:23:13;112171.53;;;-144.33;94.73
19843;BME280;10082;51.038;6.992;2023-07-13T02:25:41;112171.53;;;-144.33;95.25
19843;BME280;10082;51.038;6.992;2023-07-13T02:28:12;112171.53;;;-144.33;96.24
19843;BME280;10082;51.038;6.992;2023-07-13T02:30:41;112171.53;;;-144.33;96.99
19843;BME280;10082;51.038;6.992;2023-07-13T02:33:08;112171.53;;;-144.33;96.85
19843;BME280;10082;51.038;6.992;2023-07-13T02:35:35;112171.53;;;-144.33;96.62
19843;BME280;10082;51.038;6.992;2023-07-13T02:38:03;112171.53;;;-144.33;97.39
19843;BME280;10082;51.038;6.992;2023-07-13T02:40:30;112171.53;;;-144.33;96.86
19843;BME280;10082;51.038;6.992;2023-07-13T02:42:58;112171.53;;;-144.33;97.03
19843;BME280;10082;51.038;6.992;2023-07-13T02:45:26;112171.53;;;-144.33;98.38
19843;BME280;10082;51.038;6.992;2023-07-13T02:47:54;112171.53;;;-144.33;98.42
19843;BME280;10082;51.038;6.992;2023-07-13T02:50:23;112171.53;;;-144.33;98.65
19843;BME280;10082;51.038;6.992;2023-07-13T02:52:50;112171.53;;;-144.33;99.33
19843;BME280;10082;51.038;6.992;2023-07-13T02:55:17;112171.53;;;-144.33;97.39
19843;BME280;10082;51.038;6.992;2023-07-13T02:57:44;112171.53;;;-144.33;97.68
19843;BME280;10082;51.038;6.992;2023-07-13T03:00:12;112171.53;;;-144.33;98.02
19843;BME280;10082;51.038;6.992;2023-07-13T03:02:42;112171.53;;;-144.33;97.95
19843;BME280;10082;51.038;6.992;2023-07-13T03:05:11;112171.53;;;-144.33;97.37
19843;BME280;10082;51.038;6.992;2023-07-13T03:07:41;112171.53;;;-144.33;98.35
19843;BME280;10082;51.038;6.992;2023-07-13T03:10:10;112171.53;;;-144.33;97.55
19843;BME280;10082;51.038;6.992;2023-07-13T03:12:43;112171.53;;;-144.33;97.46
19843;BME280;10082;51.038;6.992;2023-07-13T03:15:19;112171.53;;;-144.33;97.39
19843;BME280;10082;51.038;6.992;2023-07-13T03:17:47;112171.53;;;-144.33;96.92
19843;BME280;10082;51.038;6.992;2023-07-13T03:20:17;112171.53;;;-144.33;96.62
19843;BME280;10082;51.038;6.992;2023-07-13T03:22:45;112171.53;;;-144.33;96.41
19843;BME280;10082;51.038;6.992;2023-07-13T03:25:12;112171.53;;;-144.33;95.06
19843;BME280;10082;51.038;6.992;2023-07-13T03:27:39;112171.53;;;-144.33;95.26
19843;BME280;10082;51.038;6.992;2023-07-13T03:30:09;112171.53;;;-144.33;94.74
19843;BME280;10082;51.038;6.992;2023-07-13T03:32:36;112171.53;;;-144.33;94.62
19843;BME280;10082;51.038;6.992;2023-07-13T03:35:05;112171.53;;;-144.33;94.51
19843;BME280;10082;51.038;6.992;2023-07-13T03:37:33;112171.53;;;-144.33;94.70
19843;BME280;10082;51.038;6.992;2023-07-13T03:40:00;112171.53;;;-144.33;95.67
19843;BME280;10082;51.038;6.992;2023-07-13T03:42:29;112171.53;;;-144.33;95.18
19843;BME280;10082;51.038;6.992;2023-07-13T03:44:56;112171.53;;;-144.33;95.65
19843;BME280;10082;51.038;6.992;2023-07-13T03:47:24;112171.53;;;-144.33;95.13
19843;BME280;10082;51.038;6.992;2023-07-13T03:49:51;112171.53;;;-144.33;95.26
19843;BME280;10082;51.038;6.992;2023-07-13T03:52:19;112171.53;;;-144.33;95.50
19843;BME280;10082;51.038;6.992;2023-07-13T03:54:48;112171.53;;;-144.33;95.92
19843;BME280;10082;51.038;6.992;2023-07-13T03:57:16;112171.53;;;-144.33;96.64
19843;BME280;10082;51.038;6.992;2023-07-13T03:59:43;112171.53;;;-144.33;96.65
19843;BME280;10082;51.038;6.992;2023-07-13T04:02:10;112171.53;;;-144.33;96.69
19843;BME280;10082;51.038;6.992;2023-07-13T04:04:38;112171.53;;;-144.33;96.75
19843;BME280;10082;51.038;6.992;2023-07-13T04:07:06;112171.53;;;-144.33;97.12
19843;BME280;10082;51.038;6.992;2023-07-13T04:09:33;112171.53;;;-144.33;97.17
19843;BME280;10082;51.038;6.992;2023-07-13T04:12:04;112171.53;;;-144.33;97.27
19843;BME280;10082;51.038;6.992;2023-07-13T04:14:31;112171.53;;;-144.33;98.25
19843;BME280;10082;51.038;6.992;2023-07-13T04:16:59;112171.53;;;-144.33;98.21
19843;BME280;10082;51.038;6.992;2023-07-13T04:19:27;112171.53;;;-144.33;98.47
19843;BME280;10082;51.038;6.992;2023-07-13T04:21:54;112171.53;;;-144.33;98.42
19843;BME280;10082;51.038;6.992;2023-07-13T04:24:21;112171.53;;;-144.33;98.34
19843;BME280;10082;51.038;6.992;2023-07-13T04:26:48;112171.53;;;-144.33;98.80
19843;BME280;10082;51.038;6.992;2023-07-13T04:29:16;112171.53;;;-144.33;99.64
19843;BME280;10082;51.038;6.992;2023-07-13T04:31:44;112171.53;;;-144.33;99.47
19843;BME280;10082;51.038;6.992;2023-07-13T04:34:11;112171.53;;;-144.33;99.22
19843;BME280;10082;51.038;6.992;2023-07-13T04:36:38;112171.53;;;-144.33;98.61
19843;BME280;10082;51.038;6.992;2023-07-13T04:39:05;112171.53;;;-144.33;98.81
19843;BME280;10082;51.038;6.992;2023-07-13T04:41:32;112171.53;;;-144.33;99.06
19843;BME280;10082;51.038;6.992;2023-07-13T04:43:59;112171.53;;;-144.33;99.67
19843;BME280;10082;51.038;6.992;2023-07-13T04:46:27;112171.53;;;-144.33;99.13
19843;BME280;10082;51.038;6.992;2023-07-13T04:48:55;112171.53;;;-144.33;99.90
19843;BME280;10082;51.038;6.992;2023-07-13T04:51:23;112171.53;;;-144.33;100.00
19843;BME280;10082;51.038;6.992;2023-07-13T04:53:51;112171.53;;;-144.33;100.00
19843;BME280;10082;51.038;6.992;2023-07-13T04:56:18;112171.53;;;-144.33;100.00
19843;BME280;10082;51.038;6.992;2023-07-13T04:58:48;112171.53;;;-144.33;100.00
19843;BME280;10082;51.038;6.992;2023-07-13T05:01:15;112171.53;;;-144.33;100.00
19843;BME280;10082;51.038;6.992;2023-07-13T05:03:44;112171.53;;;-144.33;100.00
19843;BME280;10082;51.038;6.992;2023-07-13T05:06:11;112171.53;;;-144.33;100.00
19843;BME280;10082;51.038;6.992;2023-07-13T05:08:39;112171.53;;;-144.33;100.00
19843;BME280;10082;51.038;6.992;2023-07-13T05:11:06;112171.53;;;-144.33;100.00
19843;BME280;10082;51.038;6.992;2023-07-13T05:13:33;112171.53;;;-144.33;100.00
19843;BME280;10082;51.038;6.992;2023-07-13T05:16:02;112171.53;;;-144.33;100.00
19843;BME280;10082;51.038;6.992;2023-07-13T05:18:31;112171.53;;;-144.33;100.00
19843;BME280;10082;51.038;6.992;2023-07-13T05:21:02;112171.53;;;-144.33;100.00
19843;BME280;10082;51.038;6.992;2023-07-13T05:23:30;112171.53;;;-144.33;100.00
19843;BME280;10082;51.038;6.992;2023-07-13T05:25:58;112171.53;;;-144.33;100.00
19843;BME280;10082;51.038;6.992;2023-07-13T05:28:25;112171.53;;;-144.33;100.00
19843;BME280;10082;51.038;6.992;2023-07-13T05:30:52;112171.53;;;-144.33;100.00
19843;BME280;10082;51.038;6.992;2023-07-13T05:33:20;112171.53;;;-144.33;97.59
19843;BME280;10082;51.038;6.992;2023-07-13T05:35:47;112171.53;;;-144.33;95.96
19843;BME280;10082;51.038;6.992;2023-07-13T05:38:16;112171.53;;;-144.33;94.77
19843;BME280;10082;51.038;6.992;2023-07-13T05:40:43;112171.53;;;-144.33;95.05
19843;BME280;10082;51.038;6.992;2023-07-13T05:43:14;112171.53;;;-144.33;93.56
19843;BME280;10082;51.038;6.992;2023-07-13T05:45:41;112171.53;;;-144.33;92.72
19843;BME280;10082;51.038;6.992;2023-07-13T05:48:09;112171.53;;;-144.33;92.12
19843;BME280;10082;51.038;6.992;2023-07-13T05:50:36;112171.53;;;-144.33;94.62
19843;BME280;10082;51.038;6.992;2023-07-13T05:53:03;112171.53;;;-144.33;93.44
19843;BME280;10082;51.038;6.992;2023-07-13T05:55:32;112171.53;;;-144.33;93.17
19843;BME280;10082;51.038;6.992;2023-07-13T05:58:00;112171.53;;;-144.33;94.37
19843;BME280;10082;51.038;6.992;2023-07-13T06:00:27;112171.53;;;-144.33;96.54
19843;BME280;10082;51.038;6.992;2023-07-13T06:02:56;112171.53;;;-144.33;96.26
19843;BME280;10082;51.038;6.992;2023-07-13T06:05:29;112171.53;;;-144.33;96.87
19843;BME280;10082;51.038;6.992;2023-07-13T06:07:59;112171.53;;;-144.33;96.52
19843;BME280;10082;51.038;6.992;2023-07-13T06:10:26;112171.53;;;-144.33;94.74
19843;BME280;10082;51.038;6.992;2023-07-13T06:12:55;112171.53;;;-144.33;97.19
19843;BME280;10082;51.038;6.992;2023-07-13T06:15:22;112171.53;;;-144.33;98.58
19843;BME280;10082;51.038;6.992;2023-07-13T06:17:49;112171.53;;;-144.33;100.00
19843;BME280;10082;51.038;6.992;2023-07-13T06:20:17;112171.53;;;-144.33;100.00
19843;BME280;10082;51.038;6.992;2023-07-13T06:22:44;112171.53;;;-144.33;100.00
19843;BME280;10082;51.038;6.992;2023-07-13T06:25:11;112171.53;;;-144.33;100.00
19843;BME280;10082;51.038;6.992;2023-07-13T06:27:39;112171.53;;;-144.33;100.00
19843;BME280;10082;51.038;6.992;2023-07-13T06:30:10;112171.53;;;-144.33;100.00
19843;BME280;10082;51.038;6.992;2023-07-13T06:32:37;112171.53;;;-144.33;100.00
19843;BME280;10082;51.038;6.992;2023-07-13T06:35:05;112171.53;;;-144.33;100.00
19843;BME280;10082;51.038;6.992;2023-07-13T06:37:32;112171.53;;;-144.33;100.00
19843;BME280;10082;51.038;6.992;2023-07-13T06:40:00;112171.53;;;-144.33;97.40
19843;BME280;10082;51.038;6.992;2023-07-13T06:42:27;112171.53;;;-144.33;95.42
19843;BME280;10082;51.038;6.992;2023-07-13T06:44:54;112171.53;;;-144.33;91.98
19843;BME280;10082;51.038;6.992;2023-07-13T06:47:23;112171.53;;;-144.33;89.38
19843;BME280;10082;51.038;6.992;2023-07-13T06:49:50;112171.53;;;-144.33;92.19
19843;BME280;10082;51.038;6.992;2023-07-13T06:52:17;112171.53;;;-144.33;91.06
19843;BME280;10082;51.038;6.992;2023-07-13T06:54:45;112171.53;;;-144.33;88.76
19843;BME280;10082;51.038;6.992;2023-07-13T06:57:12;112171.53;;;-144.33;85.49
19843;BME280;10082;51.038;6.992;2023-07-13T06:59:39;112171.53;;;-144.33;85.99
19843;BME280;10082;51.038;6.992;2023-07-13T07:02:09;112171.53;;;-144.33;84.51
19843;BME280;10082;51.038;6.992;2023-07-13T07:04:38;112171.53;;;-144.33;86.82
19843;BME280;10082;51.038;6.992;2023-07-13T07:07:05;112171.53;;;-144.33;86.42
19843;BME280;10082;51.038;6.992;2023-07-13T07:09:32;112171.53;;;-144.33;83.52
19843;BME280;10082;51.038;6.992;2023-07-13T07:12:05;112171.53;;;-144.33;85.99
19843;BME280;10082;51.038;6.992;2023-07-13T07:14:33;112171.53;;;-144.33;86.77
19843;BME280;10082;51.038;6.992;2023-07-13T07:17:00;112171.53;;;-144.33;84.90
19843;BME280;10082;51.038;6.992;2023-07-13T07:19:28;112171.53;;;-144.33;84.44
19843;BME280;10082;51.038;6.992;2023-07-13T07:21:58;112171.53;;;-144.33;84.35
19843;BME280;10082;51.038;6.992;2023-07-13T07:24:25;112171.53;;;-144.33;86.59
19843;BME280;10082;51.038;6.992;2023-07-13T07:26:52;112171.53;;;-144.33;86.27
19843;BME280;10082;51.038;6.992;2023-07-13T07:29:19;112171.53;;;-144.33;83.85
19843;BME280;10082;51.038;6.992;2023-07-13T07:31:46;112171.53;;;-144.33;83.34
19843;BME280;10082;51.038;6.992;2023-07-13T07:34:13;112171.53;;;-144.33;81.05
19843;BME280;10082;51.038;6.992;2023-07-13T07:36:40;112171.53;;;-144.33;84.38
19843;BME280;10082;51.038;6.992;2023-07-13T07:39:09;112171.53;;;-144.33;87.76
19843;BME280;10082;51.038;6.992;2023-07-13T07:41:37;112171.53;;;-144.33;89.60
19843;BME280;10082;51.038;6.992;2023-07-13T07:44:04;112171.53;;;-144.33;86.54
19843;BME280;10082;51.038;6.992;2023-07-13T07:46:32;112171.53;;;-144.33;86.54
19843;BME280;10082;51.038;6.992;2023-07-13T07:49:00;112171.53;;;-144.33;84.25
19843;BME280;10082;51.038;6.992;2023-07-13T07:51:27;112171.53;;;-144.33;84.99
19843;BME280;10082;51.038;6.992;2023-07-13T07:53:54;112171.53;;;-144.33;85.61
19843;BME280;10082;51.038;6.992;2023-07-13T07:56:22;112171.53;;;-144.33;83.64
19843;BME280;10082;51.038;6.992;2023-07-13T07:58:50;112171.53;;;-144.33;80.25
19843;BME280;10082;51.038;6.992;2023-07-13T08:01:17;112171.53;;;-144.33;78.87
19843;BME280;10082;51.038;6.992;2023-07-13T08:03:44;112171.53;;;-144.33;80.50
19843;BME280;10082;51.038;6.992;2023-07-13T08:06:11;112171.53;;;-144.33;81.51
19843;BME280;10082;51.038;6.992;2023-07-13T08:08:39;112171.53;;;-144.33;84.01
19843;BME280;10082;51.038;6.992;2023-07-13T08:11:06;112171.53;;;-144.33;86.59
19843;BME280;10082;51.038;6.992;2023-07-13T08:13:36;112171.53;;;-144.33;86.18
19843;BME280;10082;51.038;6.992;2023-07-13T08:16:04;112171.53;;;-144.33;86.75
19843;BME280;10082;51.038;6.992;2023-07-13T08:18:38;112171.53;;;-144.33;84.75
19843;BME280;10082;51.038;6.992;2023-07-13T08:21:06;112171.53;;;-144.33;79.49
19843;BME280;10082;51.038;6.992;2023-07-13T08:23:34;112171.53;;;-144.33;79.35
19843;BME280;10082;51.038;6.992;2023-07-13T08:26:02;112171.53;;;-144.33;78.40
19843;BME280;10082;51.038;6.992;2023-07-13T08:28:30;112171.53;;;-144.33;74.16
19843;BME280;10082;51.038;6.992;2023-07-13T08:31:02;112171.53;;;-144.33;73.08
19843;BME280;10082;51.038;6.992;2023-07-13T08:33:29;112171.53;;;-144.33;72.43
19843;BME280;10082;51.038;6.992;2023-07-13T08:35:56;112171.53;;;-144.33;78.32
19843;BME280;10082;51.038;6.992;2023-07-13T08:38:23;112171.53;;;-144.33;77.44
19843;BME280;10082;51.038;6.992;2023-07-13T08:40:52;112171.53;;;-144.33;74.46
19843;BME280;10082;51.038;6.992;2023-07-13T08:43:25;112171.53;;;-144.33;76.60
19843;BME280;10082;51.038;6.992;2023-07-13T08:45:57;112171.53;;;-144.33;77.96
19843;BME280;10082;51.038;6.992;2023-07-13T08:48:31;112171.53;;;-144.33;77.63
19843;BME280;10082;51.038;6.992;2023-07-13T08:51:03;112171.53;;;-144.33;77.74
19843;BME280;10082;51.038;6.992;2023-07-13T08:53:36;112171.53;;;-144.33;78.05
19843;BME280;10082;51.038;6.992;2023-07-13T08:56:12;112171.53;;;-144.33;75.86
19843;BME280;10082;51.038;6.992;2023-07-13T08:58:43;112171.53;;;-144.33;74.04
19843;BME280;10082;51.038;6.992;2023-07-13T09:01:16;112171.53;;;-144.33;73.33
19843;BME280;10082;51.038;6.992;2023-07-13T09:03:58;112171.53;;;-144.33;72.30
19843;BME280;10082;51.038;6.992;2023-07-13T09:06:30;112171.53;;;-144.33;70.35
19843;BME280;10082;51.038;6.992;2023-07-13T09:09:01;112171.53;;;-144.33;71.71
19843;BME280;10082;51.038;6.992;2023-07-13T09:11:42;112171.53;;;-144.33;72.97
19843;BME280;10082;51.038;6.992;2023-07-13T09:14:32;112171.53;;;-144.33;70.33
19843;BME280;10082;51.038;6.992;2023-07-13T09:17:03;112171.53;;;-144.33;69.47
19843;BME280;10082;51.038;6.992;2023-07-13T09:19:33;112171.53;;;-144.33;69.47
19843;BME280;10082;51.038;6.992;2023-07-13T09:22:04;112171.53;;;-144.33;70.15
19843;BME280;10082;51.038;6.992;2023-07-13T09:24:37;112171.53;;;-144.33;70.02
19843;BME280;10082;51.038;6.992;2023-07-13T09:27:13;112171.53;;;-144.33;69.47
19843;BME280;10082;51.038;6.992;2023-07-13T09:29:46;112171.53;;;-144.33;65.30
19843;BME280;10082;51.038;6.992;2023-07-13T09:32:17;112171.53;;;-144.33;63.53
19843;BME280;10082;51.038;6.992;2023-07-13T09:34:52;112171.53;;;-144.33;64.46
19843;BME280;10082;51.038;6.992;2023-07-13T09:37:21;112171.53;;;-144.33;64.32
19843;BME280;10082;51.038;6.992;2023-07-13T09:39:51;112171.53;;;-144.33;66.79
19843;BME280;10082;51.038;6.992;2023-07-13T09:42:22;112171.53;;;-144.33;65.01
19843;BME280;10082;51.038;6.992;2023-07-13T09:44:54;112171.53;;;-144.33;66.14
19843;BME280;10082;51.038;6.992;2023-07-13T09:47:23;112171.53;;;-144.33;66.84
19843;BME280;10082;51.038;6.992;2023-07-13T09:49:58;112171.53;;;-144.33;69.24
19843;BME280;10082;51.038;6.992;2023-07-13T09:52:27;112171.53;;;-144.33;70.24
19843;BME280;10082;51.038;6.992;2023-07-13T09:55:23;112171.53;;;-144.33;66.94
19843;BME280;10082;51.038;6.992;2023-07-13T09:57:51;112171.53;;;-144.33;64.09
19843;BME280;10082;51.038;6.992;2023-07-13T10:00:24;112171.53;;;-144.33;64.71
19843;BME280;10082;51.038;6.992;2023-07-13T10:03:03;112171.53;;;-144.33;63.81
19843;BME280;10082;51.038;6.992;2023-07-13T10:05:39;112171.53;;;-144.33;66.08
19843;BME280;10082;51.038;6.992;2023-07-13T10:08:19;112171.53;;;-144.33;65.52
19843;BME280;10082;51.038;6.992;2023-07-13T10:10:52;112171.53;;;-144.33;66.89
19843;BME280;10082;51.038;6.992;2023-07-13T10:13:33;112171.53;;;-144.33;66.24
19843;BME280;10082;51.038;6.992;2023-07-13T10:16:02;112171.53;;;-144.33;65.42
19843;BME280;10082;51.038;6.992;2023-07-13T10:18:38;112171.53;;;-144.33;61.32
19843;BME280;10082;51.038;6.992;2023-07-13T10:21:14;112171.53;;;-144.33;59.69
19843;BME280;10082;51.038;6.992;2023-07-13T10:23:45;112171.53;;;-144.33;58.86
19843;BME280;10082;51.038;6.992;2023-07-13T10:26:18;112171.53;;;-144.33;63.76
19843;BME280;10082;51.038;6.992;2023-07-13T10:28:50;112171.53;;;-144.33;65.79
19843;BME280;10082;51.038;6.992;2023-07-13T10:31:19;112171.53;;;-144.33;64.12
19843;BME280;10082;51.038;6.992;2023-07-13T10:33:46;112171.53;;;-144.33;61.87
19843;BME280;10082;51.038;6.992;2023-07-13T10:36:20;112171.53;;;-144.33;61.27
19843;BME280;10082;51.038;6.992;2023-07-13T10:38:51;112171.53;;;-144.33;63.33
19843;BME280;10082;51.038;6.992;2023-07-13T10:41:21;112171.53;;;-144.33;57.80
19843;BME280;10082;51.038;6.992;2023-07-13T10:43:52;112171.53;;;-144.33;57.71
19843;BME280;10082;51.038;6.992;2023-07-13T10:46:24;112171.53;;;-144.33;57.17
19843;BME280;10082;51.038;6.992;2023-07-13T10:48:55;112171.53;;;-144.33;59.90
19843;BME280;10082;51.038;6.992;2023-07-13T10:51:26;112171.53;;;-144.33;58.55
19843;BME280;10082;51.038;6.992;2023-07-13T10:54:17;112171.53;;;-144.33;60.00
19843;BME280;10082;51.038;6.992;2023-07-13T10:56:45;112171.53;;;-144.33;61.38
19843;BME280;10082;51.038;6.992;2023-07-13T10:59:16;112171.53;;;-144.33;61.09
19843;BME280;10082;51.038;6.992;2023-07-13T11:01:52;112171.53;;;-144.33;60.80
19843;BME280;10082;51.038;6.992;2023-07-13T11:04:22;112171.53;;;-144.33;60.10
19843;BME280;10082;51.038;6.992;2023-07-13T11:06:53;112171.53;;;-144.33;60.98
19843;BME280;10082;51.038;6.992;2023-07-13T11:09:36;112171.53;;;-144.33;58.56
19843;BME280;10082;51.038;6.992;2023-07-13T11:12:10;112171.53;;;-144.33;60.07
19843;BME280;10082;51.038;6.992;2023-07-13T11:15:10;112171.53;;;-144.33;61.73
19843;BME280;10082;51.038;6.992;2023-07-13T11:17:48;112171.53;;;-144.33;61.69
19843;BME280;10082;51.038;6.992;2023-07-13T11:20:33;112171.53;;;-144.33;62.69
19843;BME280;10082;51.038;6.992;2023-07-13T11:23:20;112171.53;;;-144.33;62.13
19843;BME280;10082;51.038;6.992;2023-07-13T11:25:56;112171.53;;;-144.33;58.53
19843;BME280;10082;51.038;6.992;2023-07-13T11:28:27;112171.53;;;-144.33;60.68
19843;BME280;10082;51.038;6.992;2023-07-13T11:31:13;112171.53;;;-144.33;61.14
19843;BME280;10082;51.038;6.992;2023-07-13T11:33:55;112171.53;;;-144.33;58.04
19843;BME280;10082;51.038;6.992;2023-07-13T11:36:27;112171.53;;;-144.33;58.97
19843;BME280;10082;51.038;6.992;2023-07-13T11:39:02;112171.53;;;-144.33;57.64
19843;BME280;10082;51.038;6.992;2023-07-13T11:41:33;112171.53;;;-144.33;53.68
19843;BME280;10082;51.038;6.992;2023-07-13T11:44:12;112171.53;;;-144.33;54.34
19843;BME280;10082;51.038;6.992;2023-07-13T11:46:44;112171.53;;;-144.33;56.25
19843;BME280;10082;51.038;6.992;2023-07-13T11:49:16;112171.53;;;-144.33;57.68
19843;BME280;10082;51.038;6.992;2023-07-13T11:51:44;112171.53;;;-144.33;59.19
19843;BME280;10082;51.038;6.992;2023-07-13T11:54:23;112171.53;;;-144.33;59.99
19843;BME280;10082;51.038;6.992;2023-07-13T11:56:52;112171.53;;;-144.33;60.56
19843;BME280;10082;51.038;6.992;2023-07-13T11:59:19;112171.53;;;-144.33;59.71
19843;BME280;10082;51.038;6.992;2023-07-13T12:01:51;112171.53;;;-144.33;61.45
19843;BME280;10082;51.038;6.992;2023-07-13T12:04:23;112171.53;;;-144.33;57.44
19843;BME280;10082;51.038;6.992;2023-07-13T12:07:03;112171.53;;;-144.33;56.92
19843;BME280;10082;51.038;6.992;2023-07-13T12:09:33;112171.53;;;-144.33;54.07
19843;BME280;10082;51.038;6.992;2023-07-13T12:12:03;112171.53;;;-144.33;56.16
19843;BME280;10082;51.038;6.992;2023-07-13T12:14:33;112171.53;;;-144.33;57.80
19843;BME280;10082;51.038;6.992;2023-07-13T12:17:01;112171.53;;;-144.33;53.82
19843;BME280;10082;51.038;6.992;2023-07-13T12:19:29;112171.53;;;-144.33;51.23
19843;BME280;10082;51.038;6.992;2023-07-13T12:21:58;112171.53;;;-144.33;52.15
19843;BME280;10082;51.038;6.992;2023-07-13T12:24:26;112171.53;;;-144.33;50.92
19843;BME280;10082;51.038;6.992;2023-07-13T12:27:00;112171.53;;;-144.33;49.32
19843;BME280;10082;51.038;6.992;2023-07-13T12:29:28;112171.53;;;-144.33;48.19
19843;BME280;10082;51.038;6.992;2023-07-13T12:31:55;112171.53;;;-144.33;44.60
19843;BME280;10082;51.038;6.992;2023-07-13T12:34:24;112171.53;;;-144.33;47.36
19843;BME280;10082;51.038;6.992;2023-07-13T12:36:52;112171.53;;;-144.33;49.65
19843;BME280;10082;51.038;6.992;2023-07-13T12:39:23;112171.53;;;-144.33;49.40
19843;BME280;10082;51.038;6.992;2023-07-13T12:41:52;112171.53;;;-144.33;48.02
19843;BME280;10082;51.038;6.992;2023-07-13T12:44:27;112171.53;;;-144.33;49.07